Time;durP1;ratioP1;P1;durP2;ratioP2;P2;SDS_P1;SDS_P2;PMS_P1;PMS_P2;Temp;Humidity;BMP_temperature;BMP_pressure;BME280_temperature;BME280_humidity;BME280_pressure;Samples;Min_cycle;Max_cycle;Signal;HPM_P1;HPM_P2
2022/04/27 07:18:42;;;;;;;7.95;1.52;;;16.50;53.60;;;;;;5206931;23;20050;-74
2022/04/27 07:21:08;;;;;;;9.85;1.80;;;16.70;53.40;;;;;;4955622;29;20047;-72
2022/04/27 07:23:34;;;;;;;11.05;1.52;;;16.80;53.60;;;;;;4957410;29;20047;-74
2022/04/27 07:26:00;;;;;;;11.23;1.70;;;16.80;53.30;;;;;;4955988;29;20398;-71
2022/04/27 07:28:25;;;;;;;8.48;1.88;;;16.90;53.60;;;;;;4957253;29;20193;-74
2022/04/27 07:30:51;;;;;;;11.35;2.22;;;17.00;53.70;;;;;;4957816;29;20424;-75
2022/04/27 07:33:17;;;;;;;37.85;3.42;;;17.10;53.90;;;;;;4956605;28;20047;-74
2022/04/27 07:35:43;;;;;;;13.05;2.35;;;17.20;54.40;;;;;;4957781;29;20054;-74
2022/04/27 07:38:08;;;;;;;11.52;2.17;;;17.30;54.50;;;;;;4958537;28;20134;-77
2022/04/27 07:40:34;;;;;;;14.57;1.90;;;17.40;54.80;;;;;;4957147;29;20051;-75
2022/04/27 07:43:00;;;;;;;9.82;1.58;;;17.40;54.90;;;;;;4956722;29;20054;-74
2022/04/27 07:45:27;;;;;;;11.63;2.00;;;17.50;55.10;;;;;;4957035;29;20122;-74
2022/04/27 07:47:53;;;;;;;10.85;1.60;;;17.60;55.50;;;;;;4957625;28;20376;-72
2022/04/27 07:50:19;;;;;;;11.63;1.85;;;17.60;55.70;;;;;;4956933;28;20055;-75
2022/04/27 07:52:45;;;;;;;17.60;2.03;;;17.70;55.30;;;;;;4957244;29;20079;-73
2022/04/27 07:55:11;;;;;;;7.93;1.75;;;17.60;56.00;;;;;;4957314;29;20087;-73
2022/04/27 07:57:38;;;;;;;9.25;1.23;;;17.70;56.20;;;;;;4958320;29;20418;-73
2022/04/27 08:00:07;;;;;;;14.57;2.47;;;17.70;56.20;;;;;;4957212;29;20055;-74
2022/04/27 08:02:32;;;;;;;15.20;2.10;;;17.80;56.20;;;;;;4949414;29;20043;-73
2022/04/27 08:04:58;;;;;;;11.65;1.88;;;17.90;56.20;;;;;;4955865;29;20134;-72
2022/04/27 08:07:24;;;;;;;11.98;1.73;;;17.90;56.10;;;;;;4957595;29;20047;-73
2022/04/27 08:09:49;;;;;;;10.63;1.50;;;18.00;56.00;;;;;;4957687;29;20082;-72
2022/04/27 08:12:15;;;;;;;11.50;1.48;;;18.10;56.00;;;;;;4956259;29;20051;-73
2022/04/27 08:14:41;;;;;;;10.75;1.73;;;18.10;55.50;;;;;;4957341;28;20098;-72
2022/04/27 08:17:07;;;;;;;10.13;1.60;;;17.80;56.40;;;;;;4957139;28;20051;-72
2022/04/27 08:19:33;;;;;;;7.47;1.65;;;17.70;56.80;;;;;;4957155;29;20086;-74
2022/04/27 08:21:59;;;;;;;5.78;1.67;;;17.80;55.70;;;;;;4957159;29;20051;-75
2022/04/27 08:24:25;;;;;;;6.10;1.80;;;17.80;53.70;;;;;;4957453;28;20051;-73
2022/04/27 08:26:51;;;;;;;9.95;1.95;;;17.90;52.30;;;;;;4956634;28;20497;-73
2022/04/27 08:29:17;;;;;;;6.95;1.40;;;17.80;57.80;;;;;;4957542;29;20047;-71
2022/04/27 08:31:43;;;;;;;10.27;2.05;;;17.80;57.60;;;;;;4942012;29;20139;-72
2022/04/27 08:34:09;;;;;;;9.27;1.77;;;17.60;57.40;;;;;;4956936;29;20443;-71
2022/04/27 08:36:35;;;;;;;6.68;1.88;;;17.60;57.50;;;;;;4957120;28;20047;-71
2022/04/27 08:39:01;;;;;;;9.07;1.92;;;17.50;58.70;;;;;;4940266;29;20055;-73
2022/04/27 08:41:28;;;;;;;9.93;2.05;;;17.40;58.50;;;;;;4957043;29;20054;-74
2022/04/27 08:43:55;;;;;;;7.72;1.65;;;17.40;58.40;;;;;;4948943;29;20047;-71
2022/04/27 08:46:21;;;;;;;8.38;1.50;;;17.40;58.60;;;;;;4958865;28;20063;-72
2022/04/27 08:48:48;;;;;;;9.02;2.10;;;17.40;56.70;;;;;;4943877;29;20121;-72
2022/04/27 08:51:14;;;;;;;6.95;1.95;;;17.30;57.90;;;;;;4960988;29;20055;-74
2022/04/27 08:53:42;;;;;;;9.45;1.45;;;17.30;57.80;;;;;;4960921;29;20050;-73
2022/04/27 08:56:08;;;;;;;13.00;1.92;;;17.30;56.20;;;;;;4960237;29;20051;-74
2022/04/27 08:58:33;;;;;;;10.68;1.50;;;17.30;54.70;;;;;;4960654;29;20061;-72
2022/04/27 09:00:59;;;;;;;15.48;2.53;;;17.50;56.60;;;;;;4960635;29;20051;-71
2022/04/27 09:03:38;;;;;;;16.67;1.98;;;17.50;56.70;;;;;;4960277;29;20410;-72
2022/04/27 09:06:07;;;;;;;19.73;3.05;;;17.30;57.10;;;;;;4960802;29;20051;-73
2022/04/27 09:08:46;;;;;;;23.83;2.75;;;17.30;57.70;;;;;;4960434;29;20047;-72
2022/04/27 09:11:25;;;;;;;13.18;2.22;;;17.40;57.90;;;;;;4960915;29;20043;-72
2022/04/27 09:14:00;;;;;;;14.40;2.42;;;17.60;57.40;;;;;;4961037;29;20354;-72
2022/04/27 09:20:46;;;;;;;11.93;2.58;;;17.80;56.90;;;;;;4961128;29;20056;-71
2022/04/27 09:22:04;;;;;;;15.65;2.60;;;17.70;55.40;;;;;;4959760;29;20070;-72
2022/04/27 09:24:50;;;;;;;17.15;2.63;;;17.80;56.40;;;;;;4956571;29;20106;-75
2022/04/27 09:27:17;;;;;;;17.38;2.38;;;17.90;56.30;;;;;;4957748;29;20098;-77
2022/04/27 09:29:43;;;;;;;7.63;1.45;;;17.80;56.30;;;;;;4944818;29;20051;-71
2022/04/27 09:32:16;;;;;;;10.25;1.52;;;17.90;56.40;;;;;;4959194;29;20063;-72
2022/04/27 09:34:46;;;;;;;11.97;1.60;;;17.90;56.60;;;;;;4959251;29;20047;-77
2022/04/27 09:37:13;;;;;;;11.73;2.47;;;17.80;56.40;;;;;;4943201;29;20055;-77
2022/04/27 09:39:39;;;;;;;10.38;1.92;;;17.80;56.50;;;;;;4959920;29;20121;-77
2022/04/27 09:42:07;;;;;;;13.32;1.83;;;17.80;56.80;;;;;;4960203;29;20499;-78
2022/04/27 09:44:34;;;;;;;8.85;1.55;;;17.80;56.70;;;;;;4960030;29;20103;-77
2022/04/27 09:47:03;;;;;;;10.10;2.08;;;17.80;56.80;;;;;;4959360;29;20110;-76
2022/04/27 09:49:35;;;;;;;14.25;2.33;;;17.80;57.00;;;;;;4958670;29;20070;-73
2022/04/27 09:52:02;;;;;;;7.50;1.60;;;17.70;57.10;;;;;;4943349;29;20058;-76
2022/04/27 09:54:29;;;;;;;11.15;1.75;;;17.50;58.20;;;;;;4959757;29;20094;-77
2022/04/27 09:57:00;;;;;;;9.27;2.15;;;17.40;58.40;;;;;;4943079;29;20040;-75
2022/04/27 09:59:34;;;;;;;8.23;1.50;;;17.30;58.50;;;;;;4941898;29;20043;-76
2022/04/27 10:02:08;;;;;;;12.77;1.90;;;17.20;58.90;;;;;;4958290;29;20058;-78
2022/04/27 10:04:36;;;;;;;7.10;1.40;;;17.30;59.20;;;;;;4959819;29;20066;-73
2022/04/27 10:07:07;;;;;;;10.70;1.60;;;17.40;58.70;;;;;;4959483;29;20039;-74
2022/04/27 10:09:33;;;;;;;7.75;1.58;;;17.50;58.30;;;;;;4959249;29;20053;-77
2022/04/27 10:12:04;;;;;;;15.02;2.75;;;17.50;58.10;;;;;;4958657;29;20047;-74
2022/04/27 10:14:30;;;;;;;7.72;1.38;;;17.60;58.00;;;;;;4941915;29;20400;-75
2022/04/27 10:16:57;;;;;;;9.52;1.48;;;17.60;58.00;;;;;;4959510;29;20427;-75
2022/04/27 10:19:24;;;;;;;8.25;1.50;;;17.70;58.00;;;;;;4955657;29;20069;-75
2022/04/27 10:21:59;;;;;;;9.25;1.75;;;17.80;57.60;;;;;;4942160;29;20065;-74
2022/04/27 10:24:34;;;;;;;8.57;1.30;;;17.80;57.50;;;;;;4959031;29;20070;-76
2022/04/27 10:27:19;;;;;;;6.47;1.67;;;17.80;57.30;;;;;;4959054;29;20076;-75
2022/04/27 10:30:05;;;;;;;7.40;1.88;;;17.90;57.30;;;;;;4958763;29;20086;-74
2022/04/27 10:32:44;;;;;;;8.75;1.85;;;17.80;57.50;;;;;;4957244;29;20043;-75
2022/04/27 10:35:17;;;;;;;10.57;1.58;;;17.80;56.50;;;;;;4957130;29;20055;-75
2022/04/27 10:38:05;;;;;;;4.78;1.40;;;17.80;55.00;;;;;;4958536;29;20077;-74
2022/04/27 10:40:39;;;;;;;6.18;1.58;;;17.70;53.10;;;;;;4941750;29;20124;-74
2022/04/27 10:43:25;;;;;;;8.45;1.40;;;17.70;53.00;;;;;;4942003;29;20053;-75
2022/04/27 10:45:50;;;;;;;7.70;1.63;;;17.70;52.60;;;;;;4941964;29;20122;-75
2022/04/27 10:48:20;;;;;;;8.57;1.83;;;17.70;53.10;;;;;;4958703;29;20134;-75
2022/04/27 10:51:07;;;;;;;7.15;1.20;;;17.70;53.30;;;;;;4958482;29;20134;-73
2022/04/27 10:53:51;;;;;;;8.05;1.50;;;17.70;52.70;;;;;;4957708;29;20047;-75
2022/04/27 10:56:24;;;;;;;7.10;1.67;;;17.70;52.00;;;;;;4958139;29;20039;-76
2022/04/27 10:58:50;;;;;;;5.95;1.40;;;17.70;51.00;;;;;;4944935;29;20099;-72
2022/04/27 11:01:27;;;;;;;5.72;1.20;;;17.70;50.50;;;;;;4957871;29;20055;-76
2022/04/27 11:04:01;;;;;;;13.90;2.10;;;17.70;49.90;;;;;;4958166;29;20445;-74
2022/04/27 11:06:27;;;;;;;9.05;1.90;;;17.70;49.70;;;;;;4958171;29;20043;-77
2022/04/27 11:09:12;;;;;;;9.60;1.35;;;17.70;50.10;;;;;;4956392;28;20050;-76
2022/04/27 11:11:55;;;;;;;6.82;1.60;;;17.80;48.60;;;;;;4958430;28;20119;-72
2022/04/27 11:14:27;;;;;;;12.10;1.50;;;17.80;49.90;;;;;;4958909;28;20047;-73
2022/04/27 11:16:53;;;;;;;8.80;1.10;;;18.00;50.50;;;;;;4958284;28;20062;-72
2022/04/27 11:19:19;;;;;;;9.45;1.80;;;18.10;50.90;;;;;;4958366;28;20055;-73
2022/04/27 11:21:46;;;;;;;10.70;1.75;;;18.20;51.20;;;;;;4957963;28;20349;-72
2022/04/27 11:24:13;;;;;;;8.10;1.35;;;18.30;51.40;;;;;;4957240;29;20055;-72
2022/04/27 11:26:44;;;;;;;7.97;1.52;;;18.40;51.40;;;;;;4958389;28;20162;-72
2022/04/27 11:29:15;;;;;;;8.63;1.52;;;18.40;51.70;;;;;;4957647;28;20482;-72
2022/04/27 11:31:43;;;;;;;6.88;1.33;;;18.40;51.80;;;;;;4958335;28;20447;-72
2022/04/27 11:34:26;;;;;;;9.57;1.10;;;18.40;52.00;;;;;;4957509;28;20051;-71
2022/04/27 11:36:53;;;;;;;6.27;1.27;;;18.40;52.10;;;;;;4957344;28;20047;-72
2022/04/27 11:39:23;;;;;;;9.38;1.77;;;18.40;52.40;;;;;;4957603;28;20404;-72
2022/04/27 11:41:59;;;;;;;10.88;1.42;;;18.40;52.60;;;;;;4958338;28;20341;-72
2022/04/27 11:44:25;;;;;;;10.40;1.27;;;18.30;52.70;;;;;;4957777;28;20425;-73
2022/04/27 11:46:54;;;;;;;9.10;2.25;;;18.30;52.90;;;;;;4957474;28;20055;-73
2022/04/27 11:49:21;;;;;;;7.10;0.95;;;18.30;53.10;;;;;;4956566;29;20047;-74
2022/04/27 11:51:48;;;;;;;6.85;1.60;;;18.30;53.40;;;;;;4957482;28;20047;-74
2022/04/27 11:54:31;;;;;;;6.97;1.65;;;18.20;53.60;;;;;;4957471;28;20051;-73
2022/04/27 11:57:03;;;;;;;5.38;1.10;;;18.20;53.60;;;;;;4957375;28;20055;-72
2022/04/27 11:59:47;;;;;;;11.45;1.95;;;18.10;53.80;;;;;;4957328;28;20122;-73
2022/04/27 12:02:12;;;;;;;14.48;1.42;;;18.10;54.00;;;;;;4957049;28;20504;-74
2022/04/27 12:04:41;;;;;;;13.50;2.88;;;18.00;54.30;;;;;;4957030;28;20126;-74
2022/04/27 12:07:18;;;;;;;5.53;1.58;;;18.00;54.30;;;;;;4956667;29;20051;-72
2022/04/27 12:10:02;;;;;;;7.57;1.48;;;18.00;54.40;;;;;;4935108;29;20384;-73
2022/04/27 12:12:30;;;;;;;7.15;1.35;;;18.00;54.60;;;;;;4938528;29;20192;-74
2022/04/27 12:14:56;;;;;;;12.23;1.95;;;17.90;54.60;;;;;;4937627;29;20102;-72
2022/04/27 12:18:05;;;;;;;10.20;1.75;;;17.90;54.60;;;;;;4938283;29;20051;-72
2022/04/27 12:20:41;;;;;;;9.23;1.25;;;17.90;55.00;;;;;;4937476;29;20067;-72
2022/04/27 12:23:14;;;;;;;11.23;1.55;;;17.90;55.10;;;;;;4937776;29;20047;-73
2022/04/27 12:25:55;;;;;;;7.93;0.97;;;17.90;55.20;;;;;;4937910;29;20058;-72
2022/04/27 12:28:26;;;;;;;9.50;1.95;;;17.90;55.30;;;;;;4937676;29;20056;-72
2022/04/27 12:30:55;;;;;;;18.10;2.38;;;18.00;55.50;;;;;;4937668;29;20377;-72
2022/04/27 12:33:26;;;;;;;13.38;1.88;;;17.90;56.00;;;;;;4937656;29;20052;-71
2022/04/27 12:39:07;;;;;;;10.82;1.45;;;18.00;55.60;;;;;;4937971;29;20055;-71
2022/04/27 12:41:44;;;;;;;9.10;1.45;;;17.90;55.40;;;;;;4937478;29;20441;-72
2022/04/27 12:44:16;;;;;;;11.15;1.58;;;17.90;55.30;;;;;;4937542;29;20054;-72
2022/04/27 12:47:11;;;;;;;8.18;1.30;;;17.90;55.30;;;;;;4937726;29;20048;-72
2022/04/27 12:49:38;;;;;;;9.40;1.67;;;17.90;55.20;;;;;;4937308;29;20058;-72
2022/04/27 12:52:21;;;;;;;8.52;1.40;;;17.90;55.20;;;;;;4934148;29;20083;-72
2022/04/27 12:54:50;;;;;;;9.27;1.33;;;17.90;55.10;;;;;;4937881;29;20048;-71
2022/04/27 12:57:16;;;;;;;4.95;1.27;;;17.90;55.10;;;;;;4937458;29;20048;-72
2022/04/27 13:00:04;;;;;;;11.30;1.40;;;17.90;55.00;;;;;;4937898;29;20048;-72
2022/04/27 13:02:30;;;;;;;8.50;1.40;;;17.90;54.90;;;;;;4937874;29;20052;-72
2022/04/27 13:04:56;;;;;;;7.68;1.10;;;17.90;54.90;;;;;;4937693;29;20055;-72
2022/04/27 13:07:22;;;;;;;6.70;1.50;;;17.90;54.80;;;;;;4937341;29;20048;-72
2022/04/27 13:12:32;;;;;;;;;;;17.90;54.60;;;;;;4937833;29;20063;-73
2022/04/27 13:14:58;;;;;;;3.28;0.90;;;17.90;54.60;;;;;;4937145;29;20266;-72
2022/04/27 13:17:24;;;;;;;7.30;1.25;;;18.00;54.70;;;;;;4937539;29;20103;-72
2022/04/27 13:19:50;;;;;;;3.47;1.00;;;18.00;54.70;;;;;;4937074;29;20385;-72
2022/04/27 13:22:16;;;;;;;4.68;1.27;;;18.00;54.60;;;;;;4937652;29;20060;-72
2022/04/27 13:24:41;;;;;;;4.95;0.98;;;18.10;54.60;;;;;;4936522;29;20067;-74
2022/04/27 13:27:07;;;;;;;7.20;1.52;;;18.00;54.50;;;;;;4936287;29;20040;-80
2022/04/27 13:29:33;;;;;;;9.00;1.50;;;18.00;54.00;;;;;;4936959;29;20043;-73
2022/04/27 13:31:58;;;;;;;14.82;1.98;;;18.10;53.60;;;;;;4921486;29;20043;-72
2022/04/27 13:34:24;;;;;;;9.80;1.77;;;18.10;53.30;;;;;;4940854;29;20043;-74
2022/04/27 13:36:50;;;;;;;8.70;1.80;;;18.10;53.10;;;;;;4941112;29;20059;-74
2022/04/27 13:39:17;;;;;;;14.85;2.17;;;18.10;53.00;;;;;;4924388;29;20151;-73
2022/04/27 13:41:43;;;;;;;11.88;2.40;;;18.10;53.00;;;;;;4941152;29;20175;-77
2022/04/27 13:44:10;;;;;;;17.90;1.98;;;18.10;53.40;;;;;;4940748;29;20048;-77
2022/04/27 13:46:37;;;;;;;6.82;1.42;;;18.10;53.30;;;;;;4939133;29;20107;-75
2022/04/27 13:49:03;;;;;;;11.60;2.13;;;18.10;53.40;;;;;;4939601;29;20045;-78
2022/04/27 13:51:30;;;;;;;10.40;1.73;;;18.10;53.80;;;;;;4939498;29;20630;-79
2022/04/27 13:53:58;;;;;;;10.70;1.80;;;18.10;52.60;;;;;;4921522;29;20058;-78
2022/04/27 13:56:25;;;;;;;8.20;1.38;;;18.00;52.90;;;;;;4921718;29;20200;-80
2022/04/27 13:58:50;;;;;;;8.15;2.33;;;17.90;52.50;;;;;;4923372;29;20055;-79
2022/04/27 14:01:17;;;;;;;6.45;1.60;;;17.80;52.90;;;;;;4939881;29;20124;-79
2022/04/27 14:03:43;;;;;;;9.90;3.05;;;17.80;53.10;;;;;;4940460;29;20072;-77
2022/04/27 14:06:09;;;;;;;14.40;4.10;;;17.80;55.10;;;;;;4923477;29;20052;-81
2022/04/27 14:08:35;;;;;;;9.48;4.82;;;17.80;58.90;;;;;;4923685;29;20062;-77
2022/04/27 14:11:05;;;;;;;14.20;3.92;;;17.80;63.50;;;;;;4940149;29;20487;-78
2022/04/27 14:13:31;;;;;;;10.32;3.47;;;17.90;60.10;;;;;;4939556;29;20067;-79
2022/04/27 14:18:41;;;;;;;16.55;4.10;;;17.90;62.10;;;;;;4939283;29;20058;-80
2022/04/27 14:21:07;;;;;;;13.27;3.22;;;17.90;63.60;;;;;;4923356;29;20044;-81
2022/04/27 14:23:33;;;;;;;15.82;4.00;;;17.90;64.00;;;;;;4938967;29;20087;-77
2022/04/27 14:26:00;;;;;;;9.48;3.45;;;17.90;65.30;;;;;;4939323;29;20047;-77
2022/04/27 14:28:27;;;;;;;13.82;3.65;;;18.00;69.00;;;;;;4939855;29;20094;-75
2022/04/27 14:30:52;;;;;;;15.45;3.35;;;18.00;70.00;;;;;;4939871;29;20055;-77
2022/04/27 14:33:19;;;;;;;15.77;3.42;;;18.00;71.10;;;;;;4932362;29;20043;-75
2022/04/27 14:35:46;;;;;;;11.13;3.70;;;18.00;71.50;;;;;;4939755;29;20058;-76
2022/04/27 14:38:14;;;;;;;16.67;3.53;;;18.00;72.30;;;;;;4939696;29;20098;-79
2022/04/27 14:40:40;;;;;;;11.93;3.15;;;18.10;72.80;;;;;;4936052;29;20066;-81
2022/04/27 14:43:10;;;;;;;12.68;3.65;;;18.10;72.50;;;;;;4937942;29;20111;-76
2022/04/27 14:45:36;;;;;;;12.35;2.90;;;18.10;72.10;;;;;;4939185;29;20047;-79
2022/04/27 14:48:02;;;;;;;10.43;2.47;;;18.10;71.60;;;;;;4939211;29;20048;-76
2022/04/27 14:50:28;;;;;;;8.90;2.17;;;18.00;67.80;;;;;;4939703;29;20044;-78
2022/04/27 14:52:55;;;;;;;8.32;2.40;;;18.00;67.80;;;;;;4939424;29;20075;-76
2022/04/27 14:55:21;;;;;;;4.82;1.50;;;18.00;62.90;;;;;;4939464;29;20047;-78
2022/04/27 14:57:47;;;;;;;6.70;2.00;;;17.80;59.00;;;;;;4939276;29;20062;-77
2022/04/27 15:00:13;;;;;;;10.45;2.22;;;17.70;58.80;;;;;;4939310;29;20420;-75
2022/04/27 15:02:38;;;;;;;7.93;1.73;;;17.70;57.90;;;;;;4939402;29;20047;-77
2022/04/27 15:05:05;;;;;;;7.82;1.67;;;17.60;58.20;;;;;;4939491;29;20114;-77
2022/04/27 15:07:32;;;;;;;8.25;1.70;;;17.60;59.30;;;;;;4938191;29;20472;-75
2022/04/27 15:09:57;;;;;;;9.45;2.30;;;17.60;59.80;;;;;;4939082;29;20456;-76
2022/04/27 15:12:23;;;;;;;5.18;1.40;;;17.60;59.40;;;;;;4938400;29;20148;-77
2022/04/27 15:14:49;;;;;;;6.97;1.70;;;17.50;57.80;;;;;;4939013;29;20437;-77
2022/04/27 15:17:15;;;;;;;7.55;1.75;;;17.50;57.70;;;;;;4922390;29;20051;-78
2022/04/27 15:19:40;;;;;;;6.28;1.80;;;17.50;58.70;;;;;;4939151;29;20066;-78
2022/04/27 15:24:51;;;;;;;7.65;1.75;;;17.50;58.90;;;;;;4937781;29;20056;-78
2022/04/27 15:27:17;;;;;;;5.57;1.67;;;17.60;58.90;;;;;;4937789;29;20565;-79
2022/04/27 15:29:43;;;;;;;11.45;2.13;;;17.60;59.40;;;;;;4938615;29;20163;-76
2022/04/27 15:32:14;;;;;;;6.88;1.58;;;17.60;59.00;;;;;;4938787;29;20036;-78
2022/04/27 15:34:39;;;;;;;7.55;1.80;;;17.60;58.50;;;;;;4921852;29;20052;-79
2022/04/27 15:37:06;;;;;;;7.97;1.58;;;17.60;58.20;;;;;;4906193;29;20054;-78
2022/04/27 15:39:33;;;;;;;8.43;1.88;;;17.60;57.70;;;;;;4906035;29;20055;-82
2022/04/27 15:42:04;;;;;;;7.63;2.03;;;17.60;57.10;;;;;;4938265;29;20070;-79
2022/04/27 15:44:31;;;;;;;5.75;1.75;;;17.60;56.30;;;;;;4921802;29;20051;-79
2022/04/27 15:46:57;;;;;;;6.82;1.65;;;17.60;55.90;;;;;;4938813;29;20054;-80
2022/04/27 15:49:23;;;;;;;7.95;1.65;;;17.70;55.50;;;;;;4921806;29;20115;-78
2022/04/27 15:51:49;;;;;;;8.10;1.58;;;17.70;54.80;;;;;;4921944;29;20063;-78
2022/04/27 15:54:15;;;;;;;6.28;1.90;;;17.60;53.90;;;;;;4937962;29;20111;-76
2022/04/27 15:56:42;;;;;;;8.88;1.95;;;17.60;54.00;;;;;;4938445;29;20446;-75
2022/04/27 15:59:08;;;;;;;8.90;2.05;;;17.60;54.00;;;;;;4938377;29;20130;-77
2022/04/27 16:01:36;;;;;;;9.02;1.98;;;17.60;54.40;;;;;;4924481;29;20055;-76
2022/04/27 16:04:03;;;;;;;9.13;1.92;;;17.60;54.60;;;;;;4938544;29;20449;-78
2022/04/27 16:06:29;;;;;;;7.72;1.50;;;17.60;55.40;;;;;;4938385;29;20440;-77
2022/04/27 16:08:55;;;;;;;7.25;1.95;;;17.50;54.40;;;;;;4938828;29;20098;-76
2022/04/27 16:11:22;;;;;;;12.05;2.70;;;17.50;54.50;;;;;;4938311;29;20055;-75
2022/04/27 16:13:49;;;;;;;8.18;1.90;;;17.50;55.10;;;;;;4938875;29;20048;-76
2022/04/27 16:16:14;;;;;;;6.65;1.58;;;17.50;54.70;;;;;;4937961;29;20051;-76
2022/04/27 16:18:41;;;;;;;11.50;1.75;;;17.60;55.00;;;;;;4938185;29;20102;-76
2022/04/27 16:23:51;;;;;;;6.70;1.40;;;17.60;55.20;;;;;;4938231;29;20055;-75
2022/04/27 16:26:17;;;;;;;9.52;1.80;;;17.50;55.00;;;;;;4938073;29;20043;-75
2022/04/27 16:28:44;;;;;;;9.45;1.98;;;17.50;55.20;;;;;;4921460;29;20062;-78
2022/04/27 16:31:10;;;;;;;12.13;2.28;;;17.50;55.30;;;;;;4938146;29;20052;-77
2022/04/27 16:33:35;;;;;;;57.03;7.60;;;17.50;55.50;;;;;;4937512;29;20055;-76
2022/04/27 16:36:01;;;;;;;33.58;4.15;;;17.60;55.80;;;;;;4937114;29;20141;-75
2022/04/27 16:38:27;;;;;;;24.42;3.42;;;17.50;55.80;;;;;;4937833;29;20051;-75
2022/04/27 16:40:53;;;;;;;34.42;4.43;;;17.50;56.00;;;;;;4937979;29;20191;-77
2022/04/27 16:43:19;;;;;;;22.08;3.85;;;17.50;56.10;;;;;;4937969;29;20054;-77
2022/04/27 16:45:44;;;;;;;20.00;3.35;;;17.50;56.20;;;;;;4938166;29;20055;-75
2022/04/27 16:48:10;;;;;;;27.50;4.40;;;17.50;56.30;;;;;;4937677;29;20138;-76
2022/04/27 16:50:36;;;;;;;25.00;4.30;;;17.50;56.20;;;;;;4937572;29;20127;-74
2022/04/27 16:53:02;;;;;;;24.77;3.25;;;17.50;56.30;;;;;;4937010;29;20118;-76
2022/04/27 16:55:28;;;;;;;18.25;3.63;;;17.50;56.30;;;;;;4937575;29;20039;-77
2022/04/27 16:57:54;;;;;;;21.52;3.20;;;17.50;56.40;;;;;;4937032;29;20457;-75
2022/04/27 17:03:04;;;;;;;23.92;3.72;;;17.50;56.60;;;;;;4937292;29;20051;-76
2022/04/27 17:05:30;;;;;;;22.42;3.38;;;17.40;56.70;;;;;;4937436;29;20080;-76
2022/04/27 17:07:56;;;;;;;18.60;2.85;;;17.50;57.00;;;;;;4923562;29;20061;-76
2022/04/27 17:10:23;;;;;;;15.15;3.40;;;17.50;56.90;;;;;;4925565;29;20086;-77
2022/04/27 17:12:49;;;;;;;15.52;2.72;;;17.50;56.90;;;;;;4925340;29;20103;-78
2022/04/27 17:15:15;;;;;;;12.82;2.95;;;17.40;56.90;;;;;;4941093;29;20106;-78
2022/04/27 17:17:41;;;;;;;26.38;4.13;;;17.40;56.90;;;;;;4941263;29;20048;-77
2022/04/27 17:20:09;;;;;;;13.20;2.67;;;17.50;56.90;;;;;;4941137;29;20055;-77
2022/04/27 17:22:36;;;;;;;10.98;2.40;;;17.40;56.90;;;;;;4941438;29;20175;-77
2022/04/27 17:25:02;;;;;;;13.88;2.63;;;17.40;56.90;;;;;;4924658;29;20059;-77
2022/04/27 17:27:29;;;;;;;12.05;2.80;;;17.40;56.90;;;;;;4941268;29;20138;-76
2022/04/27 17:29:57;;;;;;;10.60;2.53;;;17.40;56.90;;;;;;4941591;29;20056;-77
2022/04/27 17:32:23;;;;;;;16.27;3.72;;;17.40;56.90;;;;;;4941173;29;20111;-77
2022/04/27 17:34:48;;;;;;;13.02;2.88;;;17.40;56.90;;;;;;4940953;29;20131;-77
2022/04/27 17:37:14;;;;;;;11.32;2.85;;;17.40;56.80;;;;;;4941233;29;20052;-75
2022/04/27 17:39:40;;;;;;;8.32;1.98;;;17.40;56.70;;;;;;4940135;29;20130;-75
2022/04/27 17:44:50;;;;;;;10.85;2.70;;;17.50;56.80;;;;;;4941304;29;20047;-76
2022/04/27 17:47:16;;;;;;;13.95;2.88;;;17.50;56.80;;;;;;4940827;29;20102;-76
2022/04/27 17:49:41;;;;;;;6.72;2.17;;;17.50;56.30;;;;;;4941017;29;20055;-77
2022/04/27 17:52:08;;;;;;;14.73;2.85;;;17.50;56.30;;;;;;4940599;29;20110;-77
2022/04/27 17:54:34;;;;;;;9.48;2.42;;;17.40;55.50;;;;;;4940418;29;20063;-75
2022/04/27 17:56:59;;;;;;;16.25;3.00;;;17.40;55.50;;;;;;4940759;29;20134;-76
2022/04/27 17:59:25;;;;;;;9.48;2.28;;;17.40;55.50;;;;;;4940516;29;20052;-76
2022/04/27 18:01:51;;;;;;;10.32;2.05;;;17.50;55.60;;;;;;4933533;29;20052;-75
2022/04/27 18:04:17;;;;;;;8.90;2.38;;;17.50;55.70;;;;;;4923982;29;20044;-77
2022/04/27 18:06:42;;;;;;;11.65;3.30;;;17.50;55.70;;;;;;4941163;29;20574;-76
2022/04/27 18:09:09;;;;;;;8.45;2.13;;;17.50;55.90;;;;;;4924387;29;20051;-76
2022/04/27 18:11:34;;;;;;;6.28;1.88;;;17.50;55.90;;;;;;4923806;29;20059;-77
2022/04/27 18:14:00;;;;;;;8.82;2.13;;;17.50;55.80;;;;;;4940843;29;20460;-76
2022/04/27 18:16:26;;;;;;;7.93;2.40;;;17.50;55.70;;;;;;4940197;29;20131;-76
2022/04/27 18:18:52;;;;;;;7.50;2.03;;;17.50;55.70;;;;;;4923293;29;20051;-77
2022/04/27 18:21:18;;;;;;;7.50;2.00;;;17.50;55.70;;;;;;4924317;29;20062;-76
2022/04/27 18:23:46;;;;;;;8.25;1.92;;;17.50;55.70;;;;;;4940378;29;20130;-76
2022/04/27 18:26:12;;;;;;;8.35;1.88;;;17.50;55.70;;;;;;4940112;29;20051;-77
2022/04/27 18:28:38;;;;;;;14.55;2.00;;;17.50;55.70;;;;;;4939980;29;20047;-77
2022/04/27 18:31:04;;;;;;;7.90;1.90;;;17.50;55.90;;;;;;4936887;29;20126;-76
2022/04/27 18:33:30;;;;;;;11.15;2.17;;;17.40;55.00;;;;;;4939986;29;20441;-77
2022/04/27 18:35:56;;;;;;;8.32;2.13;;;17.40;54.20;;;;;;4939069;29;20055;-77
2022/04/27 18:38:22;;;;;;;9.88;2.45;;;17.40;53.40;;;;;;4940048;29;20107;-77
2022/04/27 18:40:48;;;;;;;21.60;3.58;;;17.30;53.50;;;;;;4940208;29;20050;-78
2022/04/27 18:51:28;;;;;;;16.67;3.42;;;16.90;52.50;;;;;;4938467;29;20052;-78
2022/04/27 18:53:55;;;;;;;15.80;4.03;;;17.00;53.00;;;;;;4939640;29;20392;-77
2022/04/27 18:56:21;;;;;;;14.02;3.17;;;17.00;53.30;;;;;;4938591;29;20362;-77
2022/04/27 18:58:51;;;;;;;18.15;3.47;;;17.00;53.20;;;;;;4936139;29;20048;-76
2022/04/27 19:01:17;;;;;;;15.63;2.70;;;17.10;53.20;;;;;;4938645;29;20126;-77
2022/04/27 19:03:45;;;;;;;14.65;2.75;;;17.10;53.10;;;;;;4937513;29;20043;-77
2022/04/27 19:06:14;;;;;;;12.07;3.17;;;17.10;53.20;;;;;;4939344;29;20078;-77
2022/04/27 19:08:40;;;;;;;15.15;2.40;;;17.10;53.70;;;;;;4940013;29;20083;-76
2022/04/27 19:11:05;;;;;;;10.93;2.65;;;17.10;53.90;;;;;;4922630;29;20098;-77
2022/04/27 19:13:33;;;;;;;8.43;2.38;;;17.10;54.10;;;;;;4922770;29;20457;-76
2022/04/27 19:16:00;;;;;;;7.95;2.35;;;17.10;54.20;;;;;;4938787;29;20471;-77
2022/04/27 19:18:26;;;;;;;18.35;2.80;;;17.10;54.30;;;;;;4921964;29;20047;-75
2022/04/27 19:20:52;;;;;;;16.55;2.80;;;17.00;54.40;;;;;;4922020;29;20475;-77
2022/04/27 19:23:18;;;;;;;15.55;2.92;;;17.10;54.60;;;;;;4922705;29;20059;-76
2022/04/27 19:25:44;;;;;;;17.67;3.05;;;17.10;54.60;;;;;;4922417;29;20431;-73
2022/04/27 19:28:13;;;;;;;14.77;3.53;;;17.10;54.80;;;;;;4937023;29;20130;-75
2022/04/27 19:30:39;;;;;;;18.67;3.15;;;17.10;54.80;;;;;;4934986;29;20055;-75
2022/04/27 19:33:05;;;;;;;16.73;3.25;;;17.10;54.90;;;;;;4939345;29;20053;-74
2022/04/27 19:35:31;;;;;;;14.13;2.65;;;17.10;54.90;;;;;;4939306;29;20424;-77
2022/04/27 19:37:56;;;;;;;12.48;2.55;;;17.10;54.80;;;;;;4938717;29;20063;-75
2022/04/27 19:40:22;;;;;;;12.80;3.10;;;17.20;55.20;;;;;;4938803;29;20139;-76
2022/04/27 19:42:48;;;;;;;15.30;3.00;;;17.10;55.30;;;;;;4922121;29;20044;-77
2022/04/27 19:45:17;;;;;;;17.73;2.78;;;17.20;55.30;;;;;;4935968;29;20067;-76
2022/04/27 19:47:43;;;;;;;9.73;3.13;;;17.20;55.30;;;;;;4921972;29;20055;-75
2022/04/27 19:50:09;;;;;;;11.30;2.40;;;17.20;55.40;;;;;;4921934;29;20083;-75
2022/04/27 19:55:21;;;;;;;8.70;2.60;;;17.20;55.50;;;;;;4939010;29;20059;-76
2022/04/27 19:57:47;;;;;;;8.98;2.15;;;17.20;55.50;;;;;;4937595;29;20063;-74
2022/04/27 20:00:15;;;;;;;13.18;2.30;;;17.20;55.50;;;;;;4938280;29;20055;-77
2022/04/27 20:02:42;;;;;;;12.55;2.25;;;17.30;55.60;;;;;;4926295;29;20098;-75
2022/04/27 20:05:12;;;;;;;7.38;2.17;;;17.30;55.60;;;;;;4938312;29;20054;-77
2022/04/27 20:07:38;;;;;;;12.65;2.65;;;17.20;55.70;;;;;;4938469;29;20048;-76
2022/04/27 20:10:07;;;;;;;12.52;2.42;;;17.30;55.90;;;;;;4938545;29;20349;-77
2022/04/27 20:12:33;;;;;;;12.07;2.42;;;17.30;55.80;;;;;;4935105;29;20051;-75
2022/04/27 20:14:59;;;;;;;13.70;2.85;;;17.20;55.70;;;;;;4937869;29;20048;-76
2022/04/27 20:17:26;;;;;;;10.00;2.00;;;17.20;55.60;;;;;;4937985;29;20047;-77
2022/04/27 20:19:51;;;;;;;8.00;2.30;;;17.10;55.20;;;;;;4937644;29;20098;-76
2022/04/27 20:22:21;;;;;;;5.95;2.38;;;17.00;55.40;;;;;;4938263;29;20476;-78
2022/04/27 20:24:48;;;;;;;6.55;2.58;;;17.00;55.20;;;;;;4937543;29;20113;-76
2022/04/27 20:27:15;;;;;;;6.97;2.15;;;16.90;55.40;;;;;;4921553;29;20118;-75
2022/04/27 20:29:41;;;;;;;7.45;2.50;;;16.80;55.80;;;;;;4937870;29;20515;-78
2022/04/27 20:32:08;;;;;;;9.52;2.42;;;16.80;55.70;;;;;;4922112;29;20044;-77
2022/04/27 20:34:36;;;;;;;7.05;2.50;;;16.80;55.90;;;;;;4938184;29;20040;-76
2022/04/27 20:37:07;;;;;;;9.25;2.72;;;16.80;56.40;;;;;;4937229;29;20150;-77
2022/04/27 20:39:33;;;;;;;18.25;3.25;;;16.80;56.70;;;;;;4936753;29;20352;-76